sensor_id;sensor_type;location;lat;lon;timestamp;P1;durP1;ratioP1;P2;durP2;ratioP2
59846;SDS011;45728;48.788;2.302;2023-10-08T00:00:04;12.77;;;8.60;;
59846;SDS011;45728;48.788;2.302;2023-10-08T00:02:50;12.15;;;8.43;;
59846;SDS011;45728;48.788;2.302;2023-10-08T00:05:17;12.68;;;8.52;;
59846;SDS011;45728;48.788;2.302;2023-10-08T00:07:44;11.27;;;8.20;;
59846;SDS011;45728;48.788;2.302;2023-10-08T00:10:10;11.57;;;8.50;;
59846;SDS011;45728;48.788;2.302;2023-10-08T00:12:38;13.25;;;8.40;;
59846;SDS011;45728;48.788;2.302;2023-10-08T00:15:04;11.73;;;8.20;;
59846;SDS011;45728;48.788;2.302;2023-10-08T00:17:35;13.50;;;8.93;;
59846;SDS011;45728;48.788;2.302;2023-10-08T00:20:02;11.52;;;8.90;;
59846;SDS011;45728;48.788;2.302;2023-10-08T00:22:29;13.30;;;9.50;;
59846;SDS011;45728;48.788;2.302;2023-10-08T00:25:01;14.20;;;8.85;;
59846;SDS011;45728;48.788;2.302;2023-10-08T00:27:30;14.63;;;9.93;;
59846;SDS011;45728;48.788;2.302;2023-10-08T00:30:04;12.18;;;8.65;;
59846;SDS011;45728;48.788;2.302;2023-10-08T00:32:39;11.93;;;8.50;;
59846;SDS011;45728;48.788;2.302;2023-10-08T00:35:05;9.60;;;7.25;;
59846;SDS011;45728;48.788;2.302;2023-10-08T00:37:31;11.48;;;7.97;;
59846;SDS011;45728;48.788;2.302;2023-10-08T00:39:59;10.18;;;7.55;;
59846;SDS011;45728;48.788;2.302;2023-10-08T00:42:25;11.18;;;8.07;;
59846;SDS011;45728;48.788;2.302;2023-10-08T00:44:54;11.77;;;7.68;;
59846;SDS011;45728;48.788;2.302;2023-10-08T00:47:21;12.95;;;7.80;;
59846;SDS011;45728;48.788;2.302;2023-10-08T00:49:51;10.77;;;7.30;;
59846;SDS011;45728;48.788;2.302;2023-10-08T00:52:30;11.23;;;7.28;;
59846;SDS011;45728;48.788;2.302;2023-10-08T00:55:03;11.07;;;7.70;;
59846;SDS011;45728;48.788;2.302;2023-10-08T00:57:31;10.77;;;7.57;;
59846;SDS011;45728;48.788;2.302;2023-10-08T01:00:01;10.05;;;7.38;;
59846;SDS011;45728;48.788;2.302;2023-10-08T01:02:30;11.57;;;7.65;;
59846;SDS011;45728;48.788;2.302;2023-10-08T01:05:11;12.18;;;7.85;;
59846;SDS011;45728;48.788;2.302;2023-10-08T01:07:38;10.68;;;7.57;;
59846;SDS011;45728;48.788;2.302;2023-10-08T01:10:10;10.68;;;7.88;;
59846;SDS011;45728;48.788;2.302;2023-10-08T01:12:39;11.53;;;8.07;;
59846;SDS011;45728;48.788;2.302;2023-10-08T01:15:20;10.63;;;7.32;;
59846;SDS011;45728;48.788;2.302;2023-10-08T01:17:54;11.82;;;7.93;;
59846;SDS011;45728;48.788;2.302;2023-10-08T01:20:26;11.27;;;8.68;;
59846;SDS011;45728;48.788;2.302;2023-10-08T01:23:09;11.10;;;7.70;;
59846;SDS011;45728;48.788;2.302;2023-10-08T01:25:39;13.70;;;8.23;;
59846;SDS011;45728;48.788;2.302;2023-10-08T01:28:06;11.82;;;7.55;;
59846;SDS011;45728;48.788;2.302;2023-10-08T01:30:53;11.40;;;8.30;;
59846;SDS011;45728;48.788;2.302;2023-10-08T01:33:23;9.90;;;7.00;;
59846;SDS011;45728;48.788;2.302;2023-10-08T01:35:53;11.15;;;8.00;;
59846;SDS011;45728;48.788;2.302;2023-10-08T01:38:20;8.68;;;6.95;;
59846;SDS011;45728;48.788;2.302;2023-10-08T01:40:49;10.23;;;7.10;;
59846;SDS011;45728;48.788;2.302;2023-10-08T01:45:46;10.68;;;7.18;;
59846;SDS011;45728;48.788;2.302;2023-10-08T01:48:15;8.95;;;6.95;;
59846;SDS011;45728;48.788;2.302;2023-10-08T01:50:46;10.25;;;6.85;;
59846;SDS011;45728;48.788;2.302;2023-10-08T01:53:14;14.15;;;7.05;;
59846;SDS011;45728;48.788;2.302;2023-10-08T01:55:41;10.30;;;6.65;;
59846;SDS011;45728;48.788;2.302;2023-10-08T01:58:17;11.45;;;7.20;;
59846;SDS011;45728;48.788;2.302;2023-10-08T02:00:46;9.98;;;7.32;;
59846;SDS011;45728;48.788;2.302;2023-10-08T02:03:13;11.60;;;7.70;;
59846;SDS011;45728;48.788;2.302;2023-10-08T02:05:44;10.52;;;6.90;;
59846;SDS011;45728;48.788;2.302;2023-10-08T02:08:11;9.20;;;7.05;;
59846;SDS011;45728;48.788;2.302;2023-10-08T02:10:41;8.43;;;6.97;;
59846;SDS011;45728;48.788;2.302;2023-10-08T02:13:10;8.23;;;6.70;;
59846;SDS011;45728;48.788;2.302;2023-10-08T02:15:36;9.68;;;7.20;;
59846;SDS011;45728;48.788;2.302;2023-10-08T02:18:06;11.70;;;7.40;;
59846;SDS011;45728;48.788;2.302;2023-10-08T02:20:32;11.15;;;7.47;;
59846;SDS011;45728;48.788;2.302;2023-10-08T02:22:58;12.43;;;7.95;;
59846;SDS011;45728;48.788;2.302;2023-10-08T02:25:25;10.07;;;7.25;;
59846;SDS011;45728;48.788;2.302;2023-10-08T02:27:51;9.40;;;7.43;;
59846;SDS011;45728;48.788;2.302;2023-10-08T02:30:18;9.65;;;7.28;;
59846;SDS011;45728;48.788;2.302;2023-10-08T02:32:44;10.57;;;6.93;;
59846;SDS011;45728;48.788;2.302;2023-10-08T02:35:11;9.90;;;7.13;;
59846;SDS011;45728;48.788;2.302;2023-10-08T02:37:38;10.25;;;7.10;;
59846;SDS011;45728;48.788;2.302;2023-10-08T02:40:08;9.15;;;7.10;;
59846;SDS011;45728;48.788;2.302;2023-10-08T02:42:42;9.48;;;6.53;;
59846;SDS011;45728;48.788;2.302;2023-10-08T02:45:10;10.07;;;7.22;;
59846;SDS011;45728;48.788;2.302;2023-10-08T02:50:11;10.18;;;6.97;;
59846;SDS011;45728;48.788;2.302;2023-10-08T02:52:37;9.70;;;6.68;;
59846;SDS011;45728;48.788;2.302;2023-10-08T02:55:03;9.27;;;6.53;;
59846;SDS011;45728;48.788;2.302;2023-10-08T02:57:30;10.23;;;6.68;;
59846;SDS011;45728;48.788;2.302;2023-10-08T02:59:57;9.57;;;6.65;;
59846;SDS011;45728;48.788;2.302;2023-10-08T03:02:23;9.40;;;6.72;;
59846;SDS011;45728;48.788;2.302;2023-10-08T03:04:51;9.25;;;6.95;;
59846;SDS011;45728;48.788;2.302;2023-10-08T03:07:18;11.43;;;7.38;;
59846;SDS011;45728;48.788;2.302;2023-10-08T03:09:48;9.82;;;6.95;;
59846;SDS011;45728;48.788;2.302;2023-10-08T03:12:28;10.63;;;7.28;;
59846;SDS011;45728;48.788;2.302;2023-10-08T03:14:58;8.45;;;6.72;;
59846;SDS011;45728;48.788;2.302;2023-10-08T03:17:39;9.38;;;7.50;;
59846;SDS011;45728;48.788;2.302;2023-10-08T03:20:15;9.88;;;7.40;;
59846;SDS011;45728;48.788;2.302;2023-10-08T03:23:03;10.20;;;6.60;;
59846;SDS011;45728;48.788;2.302;2023-10-08T03:25:52;9.05;;;6.70;;
59846;SDS011;45728;48.788;2.302;2023-10-08T03:28:24;8.05;;;6.57;;
59846;SDS011;45728;48.788;2.302;2023-10-08T03:30:51;10.18;;;7.05;;
59846;SDS011;45728;48.788;2.302;2023-10-08T03:33:21;8.20;;;6.47;;
59846;SDS011;45728;48.788;2.302;2023-10-08T03:35:49;8.60;;;6.65;;
59846;SDS011;45728;48.788;2.302;2023-10-08T03:38:20;11.32;;;7.53;;
59846;SDS011;45728;48.788;2.302;2023-10-08T03:40:54;9.95;;;6.75;;
59846;SDS011;45728;48.788;2.302;2023-10-08T03:43:29;8.40;;;6.93;;
59846;SDS011;45728;48.788;2.302;2023-10-08T03:46:12;8.40;;;6.40;;
59846;SDS011;45728;48.788;2.302;2023-10-08T03:48:42;10.40;;;6.90;;
59846;SDS011;45728;48.788;2.302;2023-10-08T03:51:11;9.57;;;6.77;;
59846;SDS011;45728;48.788;2.302;2023-10-08T03:53:41;9.52;;;7.38;;
59846;SDS011;45728;48.788;2.302;2023-10-08T03:56:32;9.55;;;7.07;;
59846;SDS011;45728;48.788;2.302;2023-10-08T03:59:02;10.02;;;6.93;;
59846;SDS011;45728;48.788;2.302;2023-10-08T04:01:43;11.65;;;8.63;;
59846;SDS011;45728;48.788;2.302;2023-10-08T04:04:10;9.63;;;6.95;;
59846;SDS011;45728;48.788;2.302;2023-10-08T04:06:40;9.77;;;7.40;;
59846;SDS011;45728;48.788;2.302;2023-10-08T04:09:15;10.77;;;6.70;;
59846;SDS011;45728;48.788;2.302;2023-10-08T04:11:49;10.68;;;6.88;;
59846;SDS011;45728;48.788;2.302;2023-10-08T04:14:24;9.93;;;6.75;;
59846;SDS011;45728;48.788;2.302;2023-10-08T04:16:51;8.88;;;6.97;;
59846;SDS011;45728;48.788;2.302;2023-10-08T04:19:21;11.43;;;6.88;;
59846;SDS011;45728;48.788;2.302;2023-10-08T04:21:55;9.43;;;6.75;;
59846;SDS011;45728;48.788;2.302;2023-10-08T04:24:22;7.43;;;6.00;;
59846;SDS011;45728;48.788;2.302;2023-10-08T04:27:02;7.20;;;5.90;;
59846;SDS011;45728;48.788;2.302;2023-10-08T04:29:31;11.18;;;6.28;;
59846;SDS011;45728;48.788;2.302;2023-10-08T04:32:00;8.48;;;6.35;;
59846;SDS011;45728;48.788;2.302;2023-10-08T04:34:28;9.20;;;6.88;;
59846;SDS011;45728;48.788;2.302;2023-10-08T04:36:54;7.93;;;5.90;;
59846;SDS011;45728;48.788;2.302;2023-10-08T04:39:23;8.82;;;6.18;;
59846;SDS011;45728;48.788;2.302;2023-10-08T04:42:01;8.38;;;6.68;;
59846;SDS011;45728;48.788;2.302;2023-10-08T04:44:38;7.75;;;6.10;;
59846;SDS011;45728;48.788;2.302;2023-10-08T04:47:05;7.72;;;6.30;;
59846;SDS011;45728;48.788;2.302;2023-10-08T04:49:32;8.27;;;6.35;;
59846;SDS011;45728;48.788;2.302;2023-10-08T04:52:03;7.78;;;6.18;;
59846;SDS011;45728;48.788;2.302;2023-10-08T04:54:34;9.05;;;6.20;;
59846;SDS011;45728;48.788;2.302;2023-10-08T04:57:06;10.23;;;6.07;;
59846;SDS011;45728;48.788;2.302;2023-10-08T04:59:33;8.52;;;5.95;;
59846;SDS011;45728;48.788;2.302;2023-10-08T05:01:59;8.20;;;5.93;;
59846;SDS011;45728;48.788;2.302;2023-10-08T05:04:49;8.18;;;6.45;;
59846;SDS011;45728;48.788;2.302;2023-10-08T05:07:34;8.45;;;6.05;;
59846;SDS011;45728;48.788;2.302;2023-10-08T05:10:13;10.27;;;6.30;;
59846;SDS011;45728;48.788;2.302;2023-10-08T05:13:00;9.82;;;6.65;;
59846;SDS011;45728;48.788;2.302;2023-10-08T05:15:28;9.10;;;6.40;;
59846;SDS011;45728;48.788;2.302;2023-10-08T05:18:12;8.93;;;6.05;;
59846;SDS011;45728;48.788;2.302;2023-10-08T05:20:45;9.57;;;6.65;;
59846;SDS011;45728;48.788;2.302;2023-10-08T05:23:13;7.47;;;6.20;;
59846;SDS011;45728;48.788;2.302;2023-10-08T05:26:06;8.55;;;5.85;;
59846;SDS011;45728;48.788;2.302;2023-10-08T05:28:32;7.28;;;6.20;;
59846;SDS011;45728;48.788;2.302;2023-10-08T05:33:39;8.90;;;6.28;;
59846;SDS011;45728;48.788;2.302;2023-10-08T05:36:25;8.57;;;5.60;;
59846;SDS011;45728;48.788;2.302;2023-10-08T05:39:02;9.27;;;6.80;;
59846;SDS011;45728;48.788;2.302;2023-10-08T05:41:48;8.63;;;5.75;;
59846;SDS011;45728;48.788;2.302;2023-10-08T05:44:18;8.30;;;5.90;;
59846;SDS011;45728;48.788;2.302;2023-10-08T05:46:44;7.90;;;6.25;;
59846;SDS011;45728;48.788;2.302;2023-10-08T05:49:19;8.27;;;6.30;;
59846;SDS011;45728;48.788;2.302;2023-10-08T05:51:57;10.95;;;6.68;;
59846;SDS011;45728;48.788;2.302;2023-10-08T05:54:30;9.75;;;7.07;;
59846;SDS011;45728;48.788;2.302;2023-10-08T05:57:01;6.20;;;5.50;;
59846;SDS011;45728;48.788;2.302;2023-10-08T05:59:38;8.73;;;6.85;;
59846;SDS011;45728;48.788;2.302;2023-10-08T06:02:20;8.07;;;6.28;;
59846;SDS011;45728;48.788;2.302;2023-10-08T06:07:48;8.55;;;6.28;;
59846;SDS011;45728;48.788;2.302;2023-10-08T06:10:22;10.35;;;6.50;;
59846;SDS011;45728;48.788;2.302;2023-10-08T06:12:56;9.27;;;6.32;;
59846;SDS011;45728;48.788;2.302;2023-10-08T06:18:11;9.93;;;6.25;;
59846;SDS011;45728;48.788;2.302;2023-10-08T06:20:40;8.32;;;6.07;;
59846;SDS011;45728;48.788;2.302;2023-10-08T06:23:14;10.07;;;6.22;;
59846;SDS011;45728;48.788;2.302;2023-10-08T06:25:44;9.70;;;6.47;;
59846;SDS011;45728;48.788;2.302;2023-10-08T06:28:17;11.07;;;6.65;;
59846;SDS011;45728;48.788;2.302;2023-10-08T06:30:46;9.13;;;6.43;;
59846;SDS011;45728;48.788;2.302;2023-10-08T06:33:14;8.23;;;5.97;;
59846;SDS011;45728;48.788;2.302;2023-10-08T06:35:40;8.93;;;6.78;;
59846;SDS011;45728;48.788;2.302;2023-10-08T06:38:25;10.77;;;7.05;;
59846;SDS011;45728;48.788;2.302;2023-10-08T06:40:52;9.85;;;6.28;;
59846;SDS011;45728;48.788;2.302;2023-10-08T06:43:19;7.35;;;5.95;;
59846;SDS011;45728;48.788;2.302;2023-10-08T06:45:50;10.15;;;7.40;;
59846;SDS011;45728;48.788;2.302;2023-10-08T06:48:19;8.70;;;6.10;;
59846;SDS011;45728;48.788;2.302;2023-10-08T06:50:47;11.18;;;6.72;;
59846;SDS011;45728;48.788;2.302;2023-10-08T06:53:14;10.00;;;6.78;;
59846;SDS011;45728;48.788;2.302;2023-10-08T06:55:41;9.35;;;6.50;;
59846;SDS011;45728;48.788;2.302;2023-10-08T06:58:07;10.10;;;6.50;;
59846;SDS011;45728;48.788;2.302;2023-10-08T07:00:35;10.38;;;6.70;;
59846;SDS011;45728;48.788;2.302;2023-10-08T07:03:08;8.00;;;5.93;;
59846;SDS011;45728;48.788;2.302;2023-10-08T07:05:43;10.32;;;6.90;;
59846;SDS011;45728;48.788;2.302;2023-10-08T07:08:20;12.13;;;7.18;;
59846;SDS011;45728;48.788;2.302;2023-10-08T07:10:49;10.32;;;7.15;;
59846;SDS011;45728;48.788;2.302;2023-10-08T07:13:16;8.60;;;6.75;;
59846;SDS011;45728;48.788;2.302;2023-10-08T07:15:45;10.05;;;6.53;;
59846;SDS011;45728;48.788;2.302;2023-10-08T07:18:12;11.02;;;8.32;;
59846;SDS011;45728;48.788;2.302;2023-10-08T07:20:46;10.45;;;7.43;;
59846;SDS011;45728;48.788;2.302;2023-10-08T07:23:22;12.40;;;8.77;;
59846;SDS011;45728;48.788;2.302;2023-10-08T07:25:53;10.10;;;8.27;;
59846;SDS011;45728;48.788;2.302;2023-10-08T07:28:25;13.85;;;9.10;;
59846;SDS011;45728;48.788;2.302;2023-10-08T07:30:52;12.15;;;8.45;;
59846;SDS011;45728;48.788;2.302;2023-10-08T07:33:18;11.05;;;8.18;;
59846;SDS011;45728;48.788;2.302;2023-10-08T07:35:45;12.18;;;9.18;;
59846;SDS011;45728;48.788;2.302;2023-10-08T07:38:25;11.32;;;8.75;;
59846;SDS011;45728;48.788;2.302;2023-10-08T07:40:53;10.68;;;8.73;;
59846;SDS011;45728;48.788;2.302;2023-10-08T07:43:20;13.23;;;8.80;;
59846;SDS011;45728;48.788;2.302;2023-10-08T07:45:47;11.20;;;8.75;;
59846;SDS011;45728;48.788;2.302;2023-10-08T07:48:13;11.25;;;9.88;;
59846;SDS011;45728;48.788;2.302;2023-10-08T07:50:42;12.13;;;9.93;;
59846;SDS011;45728;48.788;2.302;2023-10-08T07:53:12;12.93;;;8.77;;
59846;SDS011;45728;48.788;2.302;2023-10-08T07:55:45;10.93;;;9.70;;
59846;SDS011;45728;48.788;2.302;2023-10-08T07:58:15;12.82;;;10.60;;
59846;SDS011;45728;48.788;2.302;2023-10-08T08:00:41;12.52;;;10.18;;
59846;SDS011;45728;48.788;2.302;2023-10-08T08:03:18;13.55;;;10.13;;
59846;SDS011;45728;48.788;2.302;2023-10-08T08:05:44;12.27;;;9.70;;
59846;SDS011;45728;48.788;2.302;2023-10-08T08:08:10;14.07;;;10.10;;
59846;SDS011;45728;48.788;2.302;2023-10-08T08:10:43;13.63;;;9.77;;
59846;SDS011;45728;48.788;2.302;2023-10-08T08:13:10;11.95;;;9.40;;
59846;SDS011;45728;48.788;2.302;2023-10-08T08:15:37;10.43;;;8.95;;
59846;SDS011;45728;48.788;2.302;2023-10-08T08:18:08;13.38;;;9.10;;
59846;SDS011;45728;48.788;2.302;2023-10-08T08:20:48;16.50;;;8.77;;
59846;SDS011;45728;48.788;2.302;2023-10-08T08:23:14;11.13;;;7.82;;
59846;SDS011;45728;48.788;2.302;2023-10-08T08:25:42;12.23;;;8.70;;
59846;SDS011;45728;48.788;2.302;2023-10-08T08:30:46;11.23;;;7.57;;
59846;SDS011;45728;48.788;2.302;2023-10-08T08:33:13;11.65;;;7.18;;
59846;SDS011;45728;48.788;2.302;2023-10-08T08:35:56;9.10;;;6.90;;
59846;SDS011;45728;48.788;2.302;2023-10-08T08:38:27;8.77;;;6.63;;
59846;SDS011;45728;48.788;2.302;2023-10-08T08:41:06;10.15;;;6.60;;
59846;SDS011;45728;48.788;2.302;2023-10-08T08:43:34;9.88;;;6.35;;
59846;SDS011;45728;48.788;2.302;2023-10-08T08:46:02;9.07;;;6.20;;
59846;SDS011;45728;48.788;2.302;2023-10-08T08:48:33;8.00;;;5.78;;
59846;SDS011;45728;48.788;2.302;2023-10-08T08:51:01;10.13;;;6.53;;
59846;SDS011;45728;48.788;2.302;2023-10-08T08:53:27;7.53;;;5.70;;
59846;SDS011;45728;48.788;2.302;2023-10-08T08:55:54;7.57;;;5.53;;
59846;SDS011;45728;48.788;2.302;2023-10-08T08:58:21;7.68;;;5.85;;
59846;SDS011;45728;48.788;2.302;2023-10-08T09:00:47;6.53;;;5.45;;
59846;SDS011;45728;48.788;2.302;2023-10-08T09:03:18;9.57;;;6.00;;
59846;SDS011;45728;48.788;2.302;2023-10-08T09:05:45;10.95;;;5.82;;
59846;SDS011;45728;48.788;2.302;2023-10-08T09:08:16;10.20;;;6.10;;
59846;SDS011;45728;48.788;2.302;2023-10-08T09:10:44;7.82;;;5.38;;
59846;SDS011;45728;48.788;2.302;2023-10-08T09:13:21;8.65;;;5.10;;
59846;SDS011;45728;48.788;2.302;2023-10-08T09:15:49;7.47;;;4.82;;
59846;SDS011;45728;48.788;2.302;2023-10-08T09:18:15;7.70;;;4.50;;
59846;SDS011;45728;48.788;2.302;2023-10-08T09:20:41;6.80;;;4.00;;
59846;SDS011;45728;48.788;2.302;2023-10-08T09:23:14;9.50;;;5.18;;
59846;SDS011;45728;48.788;2.302;2023-10-08T09:25:43;10.25;;;5.07;;
59846;SDS011;45728;48.788;2.302;2023-10-08T09:28:10;9.88;;;4.97;;
59846;SDS011;45728;48.788;2.302;2023-10-08T09:33:07;7.53;;;4.70;;
59846;SDS011;45728;48.788;2.302;2023-10-08T09:35:34;8.07;;;4.80;;
59846;SDS011;45728;48.788;2.302;2023-10-08T09:38:03;5.50;;;4.72;;
59846;SDS011;45728;48.788;2.302;2023-10-08T09:40:30;7.65;;;4.38;;
59846;SDS011;45728;48.788;2.302;2023-10-08T09:42:56;11.80;;;4.85;;
59846;SDS011;45728;48.788;2.302;2023-10-08T09:45:24;6.78;;;4.50;;
59846;SDS011;45728;48.788;2.302;2023-10-08T09:47:54;9.82;;;4.30;;
59846;SDS011;45728;48.788;2.302;2023-10-08T09:50:22;6.28;;;3.85;;
59846;SDS011;45728;48.788;2.302;2023-10-08T09:53:01;5.05;;;3.90;;
59846;SDS011;45728;48.788;2.302;2023-10-08T09:55:29;10.38;;;4.05;;
59846;SDS011;45728;48.788;2.302;2023-10-08T09:57:55;6.85;;;4.05;;
59846;SDS011;45728;48.788;2.302;2023-10-08T10:00:22;6.75;;;3.85;;
59846;SDS011;45728;48.788;2.302;2023-10-08T10:02:58;8.60;;;4.47;;
59846;SDS011;45728;48.788;2.302;2023-10-08T10:05:34;6.97;;;4.50;;
59846;SDS011;45728;48.788;2.302;2023-10-08T10:08:02;6.90;;;4.05;;
59846;SDS011;45728;48.788;2.302;2023-10-08T10:10:35;6.13;;;3.90;;
59846;SDS011;45728;48.788;2.302;2023-10-08T10:13:08;6.38;;;4.03;;
59846;SDS011;45728;48.788;2.302;2023-10-08T10:15:36;6.75;;;3.90;;
59846;SDS011;45728;48.788;2.302;2023-10-08T10:18:13;7.32;;;3.92;;
59846;SDS011;45728;48.788;2.302;2023-10-08T10:20:57;4.97;;;3.58;;
59846;SDS011;45728;48.788;2.302;2023-10-08T10:31:47;6.35;;;3.45;;
59846;SDS011;45728;48.788;2.302;2023-10-08T10:34:23;7.97;;;3.60;;
59846;SDS011;45728;48.788;2.302;2023-10-08T10:36:53;7.20;;;3.38;;
59846;SDS011;45728;48.788;2.302;2023-10-08T10:39:22;7.15;;;3.90;;
59846;SDS011;45728;48.788;2.302;2023-10-08T10:41:56;4.40;;;3.58;;
59846;SDS011;45728;48.788;2.302;2023-10-08T10:44:27;5.43;;;3.20;;
59846;SDS011;45728;48.788;2.302;2023-10-08T10:46:55;4.95;;;3.70;;
59846;SDS011;45728;48.788;2.302;2023-10-08T10:49:52;8.60;;;4.65;;
59846;SDS011;45728;48.788;2.302;2023-10-08T10:52:28;7.50;;;3.55;;
59846;SDS011;45728;48.788;2.302;2023-10-08T10:55:04;6.43;;;3.83;;
59846;SDS011;45728;48.788;2.302;2023-10-08T10:57:47;6.40;;;4.28;;
59846;SDS011;45728;48.788;2.302;2023-10-08T11:00:24;5.00;;;3.53;;
59846;SDS011;45728;48.788;2.302;2023-10-08T11:03:13;5.40;;;3.28;;
59846;SDS011;45728;48.788;2.302;2023-10-08T11:08:13;5.45;;;3.47;;
59846;SDS011;45728;48.788;2.302;2023-10-08T11:10:44;5.15;;;3.63;;
59846;SDS011;45728;48.788;2.302;2023-10-08T11:13:20;5.50;;;3.65;;
59846;SDS011;45728;48.788;2.302;2023-10-08T11:15:48;5.53;;;3.95;;
59846;SDS011;45728;48.788;2.302;2023-10-08T11:18:18;5.22;;;3.42;;
59846;SDS011;45728;48.788;2.302;2023-10-08T11:20:46;5.88;;;4.15;;
59846;SDS011;45728;48.788;2.302;2023-10-08T11:23:35;6.30;;;3.80;;
59846;SDS011;45728;48.788;2.302;2023-10-08T11:26:04;4.95;;;3.33;;
59846;SDS011;45728;48.788;2.302;2023-10-08T11:28:31;7.82;;;3.83;;
59846;SDS011;45728;48.788;2.302;2023-10-08T11:31:13;4.78;;;3.55;;
59846;SDS011;45728;48.788;2.302;2023-10-08T11:33:46;5.65;;;4.05;;
59846;SDS011;45728;48.788;2.302;2023-10-08T11:36:21;8.82;;;3.78;;
59846;SDS011;45728;48.788;2.302;2023-10-08T11:38:53;5.93;;;3.80;;
59846;SDS011;45728;48.788;2.302;2023-10-08T11:41:26;6.20;;;4.03;;
59846;SDS011;45728;48.788;2.302;2023-10-08T11:43:55;4.45;;;3.60;;
59846;SDS011;45728;48.788;2.302;2023-10-08T11:46:27;5.50;;;4.15;;
59846;SDS011;45728;48.788;2.302;2023-10-08T11:49:14;5.72;;;3.80;;
59846;SDS011;45728;48.788;2.302;2023-10-08T11:51:44;7.38;;;4.03;;
59846;SDS011;45728;48.788;2.302;2023-10-08T11:54:11;8.30;;;4.45;;
59846;SDS011;45728;48.788;2.302;2023-10-08T11:56:40;6.60;;;3.87;;
59846;SDS011;45728;48.788;2.302;2023-10-08T11:59:06;7.25;;;4.43;;
59846;SDS011;45728;48.788;2.302;2023-10-08T12:01:37;6.78;;;4.30;;
59846;SDS011;45728;48.788;2.302;2023-10-08T12:04:08;5.28;;;3.85;;
59846;SDS011;45728;48.788;2.302;2023-10-08T12:06:43;5.47;;;3.80;;
59846;SDS011;45728;48.788;2.302;2023-10-08T12:09:12;5.93;;;3.78;;
59846;SDS011;45728;48.788;2.302;2023-10-08T12:11:40;6.32;;;3.75;;
59846;SDS011;45728;48.788;2.302;2023-10-08T12:14:06;8.80;;;3.90;;
59846;SDS011;45728;48.788;2.302;2023-10-08T12:16:32;8.57;;;3.97;;
59846;SDS011;45728;48.788;2.302;2023-10-08T12:19:02;6.70;;;3.45;;
59846;SDS011;45728;48.788;2.302;2023-10-08T12:21:41;6.38;;;3.55;;
59846;SDS011;45728;48.788;2.302;2023-10-08T12:24:07;7.82;;;4.22;;
59846;SDS011;45728;48.788;2.302;2023-10-08T12:26:38;4.65;;;3.65;;
59846;SDS011;45728;48.788;2.302;2023-10-08T12:29:13;5.88;;;3.30;;
59846;SDS011;45728;48.788;2.302;2023-10-08T12:31:42;5.13;;;3.08;;
59846;SDS011;45728;48.788;2.302;2023-10-08T12:34:13;3.97;;;3.20;;
59846;SDS011;45728;48.788;2.302;2023-10-08T12:36:39;6.03;;;3.22;;
59846;SDS011;45728;48.788;2.302;2023-10-08T12:39:06;3.90;;;3.10;;
59846;SDS011;45728;48.788;2.302;2023-10-08T12:41:41;7.65;;;3.33;;
59846;SDS011;45728;48.788;2.302;2023-10-08T12:46:35;7.03;;;3.40;;
59846;SDS011;45728;48.788;2.302;2023-10-08T12:49:02;8.07;;;3.72;;
59846;SDS011;45728;48.788;2.302;2023-10-08T12:51:28;5.47;;;3.22;;
59846;SDS011;45728;48.788;2.302;2023-10-08T12:53:59;5.78;;;3.10;;
59846;SDS011;45728;48.788;2.302;2023-10-08T12:56:32;5.00;;;3.58;;
59846;SDS011;45728;48.788;2.302;2023-10-08T12:59:03;5.93;;;3.40;;
59846;SDS011;45728;48.788;2.302;2023-10-08T13:01:32;6.30;;;3.58;;
59846;SDS011;45728;48.788;2.302;2023-10-08T13:04:01;6.80;;;3.42;;
59846;SDS011;45728;48.788;2.302;2023-10-08T13:06:33;6.63;;;2.97;;
59846;SDS011;45728;48.788;2.302;2023-10-08T13:09:03;5.90;;;2.78;;
59846;SDS011;45728;48.788;2.302;2023-10-08T13:11:38;4.97;;;2.80;;
59846;SDS011;45728;48.788;2.302;2023-10-08T13:14:05;8.90;;;2.88;;
59846;SDS011;45728;48.788;2.302;2023-10-08T13:16:31;4.05;;;2.72;;
59846;SDS011;45728;48.788;2.302;2023-10-08T13:18:58;5.63;;;2.70;;
59846;SDS011;45728;48.788;2.302;2023-10-08T13:21:25;8.73;;;2.88;;
59846;SDS011;45728;48.788;2.302;2023-10-08T13:23:52;7.63;;;2.90;;
59846;SDS011;45728;48.788;2.302;2023-10-08T13:26:19;5.72;;;2.50;;
59846;SDS011;45728;48.788;2.302;2023-10-08T13:28:48;5.15;;;2.20;;
59846;SDS011;45728;48.788;2.302;2023-10-08T13:31:14;3.22;;;2.38;;
59846;SDS011;45728;48.788;2.302;2023-10-08T13:33:42;6.20;;;2.58;;
59846;SDS011;45728;48.788;2.302;2023-10-08T13:36:10;13.35;;;3.22;;
59846;SDS011;45728;48.788;2.302;2023-10-08T13:38:39;5.28;;;2.33;;
59846;SDS011;45728;48.788;2.302;2023-10-08T13:41:12;5.30;;;2.33;;
59846;SDS011;45728;48.788;2.302;2023-10-08T13:46:11;5.63;;;2.20;;
59846;SDS011;45728;48.788;2.302;2023-10-08T13:48:43;4.63;;;2.42;;
59846;SDS011;45728;48.788;2.302;2023-10-08T13:51:13;5.97;;;2.53;;
59846;SDS011;45728;48.788;2.302;2023-10-08T13:53:52;10.07;;;2.75;;
59846;SDS011;45728;48.788;2.302;2023-10-08T13:56:19;3.87;;;2.27;;
59846;SDS011;45728;48.788;2.302;2023-10-08T13:58:50;6.53;;;2.67;;
59846;SDS011;45728;48.788;2.302;2023-10-08T14:01:21;5.50;;;2.20;;
59846;SDS011;45728;48.788;2.302;2023-10-08T14:03:48;5.65;;;2.83;;
59846;SDS011;45728;48.788;2.302;2023-10-08T14:06:15;4.40;;;2.63;;
59846;SDS011;45728;48.788;2.302;2023-10-08T14:08:42;4.78;;;2.40;;
59846;SDS011;45728;48.788;2.302;2023-10-08T14:11:14;5.30;;;2.42;;
59846;SDS011;45728;48.788;2.302;2023-10-08T14:13:40;8.15;;;2.60;;
59846;SDS011;45728;48.788;2.302;2023-10-08T14:16:08;9.13;;;2.80;;
59846;SDS011;45728;48.788;2.302;2023-10-08T14:18:36;7.63;;;2.83;;
59846;SDS011;45728;48.788;2.302;2023-10-08T14:21:06;5.75;;;2.70;;
59846;SDS011;45728;48.788;2.302;2023-10-08T14:23:37;7.72;;;3.17;;
59846;SDS011;45728;48.788;2.302;2023-10-08T14:26:08;6.22;;;3.10;;
59846;SDS011;45728;48.788;2.302;2023-10-08T14:28:35;9.07;;;2.25;;
59846;SDS011;45728;48.788;2.302;2023-10-08T14:31:18;4.53;;;2.53;;
59846;SDS011;45728;48.788;2.302;2023-10-08T14:33:48;4.95;;;2.60;;
59846;SDS011;45728;48.788;2.302;2023-10-08T14:36:22;11.18;;;3.03;;
59846;SDS011;45728;48.788;2.302;2023-10-08T14:39:08;9.10;;;3.13;;
59846;SDS011;45728;48.788;2.302;2023-10-08T14:41:53;9.18;;;3.50;;
59846;SDS011;45728;48.788;2.302;2023-10-08T14:44:37;9.38;;;3.63;;
59846;SDS011;45728;48.788;2.302;2023-10-08T14:47:04;10.18;;;2.50;;
59846;SDS011;45728;48.788;2.302;2023-10-08T14:49:31;7.35;;;3.20;;
59846;SDS011;45728;48.788;2.302;2023-10-08T14:51:58;11.38;;;3.00;;
59846;SDS011;45728;48.788;2.302;2023-10-08T14:54:24;11.57;;;3.25;;
59846;SDS011;45728;48.788;2.302;2023-10-08T14:56:50;7.45;;;2.95;;
59846;SDS011;45728;48.788;2.302;2023-10-08T14:59:17;8.52;;;2.95;;
59846;SDS011;45728;48.788;2.302;2023-10-08T15:01:44;8.68;;;2.80;;
59846;SDS011;45728;48.788;2.302;2023-10-08T15:04:12;11.50;;;2.92;;
59846;SDS011;45728;48.788;2.302;2023-10-08T15:06:39;12.10;;;3.10;;
59846;SDS011;45728;48.788;2.302;2023-10-08T15:09:05;7.20;;;3.25;;
59846;SDS011;45728;48.788;2.302;2023-10-08T15:11:33;13.75;;;3.10;;
59846;SDS011;45728;48.788;2.302;2023-10-08T15:14:04;11.27;;;3.22;;
59846;SDS011;45728;48.788;2.302;2023-10-08T15:16:38;9.88;;;3.33;;
59846;SDS011;45728;48.788;2.302;2023-10-08T15:19:04;9.93;;;2.70;;
59846;SDS011;45728;48.788;2.302;2023-10-08T15:21:31;7.78;;;3.03;;
59846;SDS011;45728;48.788;2.302;2023-10-08T15:24:00;9.85;;;2.78;;
59846;SDS011;45728;48.788;2.302;2023-10-08T15:26:33;9.43;;;2.88;;
59846;SDS011;45728;48.788;2.302;2023-10-08T15:28:59;8.73;;;2.70;;
59846;SDS011;45728;48.788;2.302;2023-10-08T15:31:28;10.85;;;3.53;;
59846;SDS011;45728;48.788;2.302;2023-10-08T15:33:54;9.98;;;3.22;;
59846;SDS011;45728;48.788;2.302;2023-10-08T15:36:20;9.07;;;3.00;;
59846;SDS011;45728;48.788;2.302;2023-10-08T15:38:46;14.18;;;3.30;;